Terminal Aerodrome Forecast
Issued by NWS

Home | Current Version | Previous Version | Text Only | Print | Product List | Glossary On
Versions: 1 2 3 4 5 6 7 8 9 10 11 12 13
057
FTUS44 KTSA 052325
TAFMLC
TAF
KMLC 052325Z 0600/0624 14003KT P6SM BKN120
     FM060400 VRB03KT P6SM BKN150
     FM061700 28006KT P6SM SCT060=

USA.gov is the U.S. government's official web portal to all federal, state and local government web resources and services.